sensor_id;sensor_type;location;lat;lon;timestamp;P1;durP1;ratioP1;P2;durP2;ratioP2
50954;SDS011;36966;48.064;-0.792;2022-10-31T00:01:38;3.60;;;1.50;;
50954;SDS011;36966;48.064;-0.792;2022-10-31T00:03:58;2.45;;;1.63;;
50954;SDS011;36966;48.064;-0.792;2022-10-31T00:06:18;4.45;;;1.42;;
50954;SDS011;36966;48.064;-0.792;2022-10-31T00:08:38;2.92;;;1.35;;
50954;SDS011;36966;48.064;-0.792;2022-10-31T00:10:57;2.75;;;1.30;;
50954;SDS011;36966;48.064;-0.792;2022-10-31T00:13:16;2.78;;;1.42;;
50954;SDS011;36966;48.064;-0.792;2022-10-31T00:15:36;2.67;;;1.33;;
50954;SDS011;36966;48.064;-0.792;2022-10-31T00:17:58;3.67;;;1.38;;
50954;SDS011;36966;48.064;-0.792;2022-10-31T00:20:17;3.97;;;1.80;;
50954;SDS011;36966;48.064;-0.792;2022-10-31T00:22:36;2.63;;;1.67;;
50954;SDS011;36966;48.064;-0.792;2022-10-31T00:24:55;3.35;;;1.92;;
50954;SDS011;36966;48.064;-0.792;2022-10-31T00:27:14;3.13;;;1.55;;
50954;SDS011;36966;48.064;-0.792;2022-10-31T00:29:34;2.72;;;1.70;;
50954;SDS011;36966;48.064;-0.792;2022-10-31T00:31:53;2.30;;;1.48;;
50954;SDS011;36966;48.064;-0.792;2022-10-31T00:34:12;2.60;;;2.10;;
50954;SDS011;36966;48.064;-0.792;2022-10-31T00:36:31;4.13;;;1.75;;
50954;SDS011;36966;48.064;-0.792;2022-10-31T00:38:51;2.22;;;1.58;;
50954;SDS011;36966;48.064;-0.792;2022-10-31T00:41:10;2.67;;;1.50;;
50954;SDS011;36966;48.064;-0.792;2022-10-31T00:43:30;1.90;;;1.58;;
50954;SDS011;36966;48.064;-0.792;2022-10-31T00:45:49;4.60;;;1.88;;
50954;SDS011;36966;48.064;-0.792;2022-10-31T00:48:09;3.88;;;1.70;;
50954;SDS011;36966;48.064;-0.792;2022-10-31T00:50:29;3.50;;;2.17;;
50954;SDS011;36966;48.064;-0.792;2022-10-31T00:52:48;3.92;;;2.00;;
50954;SDS011;36966;48.064;-0.792;2022-10-31T00:55:07;4.07;;;2.20;;
50954;SDS011;36966;48.064;-0.792;2022-10-31T00:57:27;2.42;;;1.55;;
50954;SDS011;36966;48.064;-0.792;2022-10-31T00:59:46;5.10;;;2.03;;
50954;SDS011;36966;48.064;-0.792;2022-10-31T01:02:05;3.22;;;1.75;;
50954;SDS011;36966;48.064;-0.792;2022-10-31T01:04:24;3.17;;;2.00;;
50954;SDS011;36966;48.064;-0.792;2022-10-31T01:06:43;2.95;;;2.03;;
50954;SDS011;36966;48.064;-0.792;2022-10-31T01:09:02;3.47;;;1.85;;
50954;SDS011;36966;48.064;-0.792;2022-10-31T01:11:22;3.63;;;2.25;;
50954;SDS011;36966;48.064;-0.792;2022-10-31T01:13:42;3.15;;;1.45;;
50954;SDS011;36966;48.064;-0.792;2022-10-31T01:16:03;2.20;;;1.88;;
50954;SDS011;36966;48.064;-0.792;2022-10-31T01:18:23;2.05;;;1.13;;
50954;SDS011;36966;48.064;-0.792;2022-10-31T01:20:44;2.05;;;1.20;;
50954;SDS011;36966;48.064;-0.792;2022-10-31T01:23:03;3.95;;;1.23;;
50954;SDS011;36966;48.064;-0.792;2022-10-31T01:25:22;2.50;;;1.23;;
50954;SDS011;36966;48.064;-0.792;2022-10-31T01:27:41;1.35;;;1.05;;
50954;SDS011;36966;48.064;-0.792;2022-10-31T01:30:00;1.85;;;0.93;;
50954;SDS011;36966;48.064;-0.792;2022-10-31T01:32:19;1.98;;;1.17;;
50954;SDS011;36966;48.064;-0.792;2022-10-31T01:34:38;1.20;;;0.82;;
50954;SDS011;36966;48.064;-0.792;2022-10-31T01:36:57;2.53;;;1.45;;
50954;SDS011;36966;48.064;-0.792;2022-10-31T01:39:17;1.55;;;1.13;;
50954;SDS011;36966;48.064;-0.792;2022-10-31T01:41:39;2.25;;;1.13;;
50954;SDS011;36966;48.064;-0.792;2022-10-31T01:44:48;1.17;;;0.88;;
50954;SDS011;36966;48.064;-0.792;2022-10-31T01:46:42;1.10;;;0.90;;
50954;SDS011;36966;48.064;-0.792;2022-10-31T01:49:04;2.97;;;1.00;;
50954;SDS011;36966;48.064;-0.792;2022-10-31T01:51:34;1.38;;;1.00;;
50954;SDS011;36966;48.064;-0.792;2022-10-31T01:53:58;1.55;;;0.80;;
50954;SDS011;36966;48.064;-0.792;2022-10-31T01:56:29;2.47;;;1.17;;
50954;SDS011;36966;48.064;-0.792;2022-10-31T01:58:50;1.00;;;0.60;;
50954;SDS011;36966;48.064;-0.792;2022-10-31T02:01:12;1.60;;;0.90;;
50954;SDS011;36966;48.064;-0.792;2022-10-31T02:03:34;1.60;;;0.85;;
50954;SDS011;36966;48.064;-0.792;2022-10-31T02:05:54;1.73;;;1.20;;
50954;SDS011;36966;48.064;-0.792;2022-10-31T02:08:17;1.52;;;0.80;;
50954;SDS011;36966;48.064;-0.792;2022-10-31T02:10:40;0.90;;;0.63;;
50954;SDS011;36966;48.064;-0.792;2022-10-31T02:13:03;1.05;;;0.80;;
50954;SDS011;36966;48.064;-0.792;2022-10-31T02:15:24;3.15;;;0.68;;
50954;SDS011;36966;48.064;-0.792;2022-10-31T02:17:43;1.08;;;0.60;;
50954;SDS011;36966;48.064;-0.792;2022-10-31T02:25:16;0.73;;;0.40;;
50954;SDS011;36966;48.064;-0.792;2022-10-31T02:30:24;1.23;;;0.65;;
50954;SDS011;36966;48.064;-0.792;2022-10-31T02:46:28;1.20;;;0.60;;
50954;SDS011;36966;48.064;-0.792;2022-10-31T02:48:55;1.23;;;0.68;;
50954;SDS011;36966;48.064;-0.792;2022-10-31T02:51:19;0.90;;;0.68;;
50954;SDS011;36966;48.064;-0.792;2022-10-31T02:53:39;0.75;;;0.50;;
50954;SDS011;36966;48.064;-0.792;2022-10-31T02:56:00;0.70;;;0.47;;
50954;SDS011;36966;48.064;-0.792;2022-10-31T02:58:25;2.33;;;0.25;;
50954;SDS011;36966;48.064;-0.792;2022-10-31T03:11:47;0.70;;;0.50;;
50954;SDS011;36966;48.064;-0.792;2022-10-31T03:14:30;0.50;;;0.50;;
50954;SDS011;36966;48.064;-0.792;2022-10-31T03:17:07;0.20;;;0.20;;
50954;SDS011;36966;48.064;-0.792;2022-10-31T03:19:34;0.52;;;0.40;;
50954;SDS011;36966;48.064;-0.792;2022-10-31T03:22:07;0.30;;;0.28;;
50954;SDS011;36966;48.064;-0.792;2022-10-31T03:24:37;0.52;;;0.40;;
50954;SDS011;36966;48.064;-0.792;2022-10-31T03:26:58;1.00;;;0.47;;
50954;SDS011;36966;48.064;-0.792;2022-10-31T03:29:20;0.57;;;0.47;;
50954;SDS011;36966;48.064;-0.792;2022-10-31T03:31:53;0.75;;;0.47;;
50954;SDS011;36966;48.064;-0.792;2022-10-31T03:34:18;0.73;;;0.50;;
50954;SDS011;36966;48.064;-0.792;2022-10-31T03:36:39;0.50;;;0.40;;
50954;SDS011;36966;48.064;-0.792;2022-10-31T03:39:01;0.60;;;0.40;;
50954;SDS011;36966;48.064;-0.792;2022-10-31T03:41:23;0.70;;;0.60;;
50954;SDS011;36966;48.064;-0.792;2022-10-31T03:46:36;1.80;;;0.60;;
50954;SDS011;36966;48.064;-0.792;2022-10-31T03:48:55;0.40;;;0.30;;
50954;SDS011;36966;48.064;-0.792;2022-10-31T03:51:26;0.50;;;0.40;;
50954;SDS011;36966;48.064;-0.792;2022-10-31T03:56:49;0.50;;;0.38;;
50954;SDS011;36966;48.064;-0.792;2022-10-31T03:59:20;0.75;;;0.60;;
50954;SDS011;36966;48.064;-0.792;2022-10-31T04:01:43;2.80;;;0.57;;
50954;SDS011;36966;48.064;-0.792;2022-10-31T04:04:07;2.15;;;0.50;;
50954;SDS011;36966;48.064;-0.792;2022-10-31T04:06:27;1.23;;;0.75;;
50954;SDS011;36966;48.064;-0.792;2022-10-31T04:08:51;1.35;;;0.82;;
50954;SDS011;36966;48.064;-0.792;2022-10-31T04:11:15;1.10;;;0.60;;
50954;SDS011;36966;48.064;-0.792;2022-10-31T04:13:38;0.40;;;0.40;;
50954;SDS011;36966;48.064;-0.792;2022-10-31T04:16:00;1.30;;;0.65;;
50954;SDS011;36966;48.064;-0.792;2022-10-31T04:18:21;2.58;;;1.27;;
50954;SDS011;36966;48.064;-0.792;2022-10-31T04:20:41;1.05;;;0.70;;
50954;SDS011;36966;48.064;-0.792;2022-10-31T04:23:01;1.27;;;0.90;;
50954;SDS011;36966;48.064;-0.792;2022-10-31T04:25:22;0.90;;;0.70;;
50954;SDS011;36966;48.064;-0.792;2022-10-31T04:27:41;1.30;;;0.80;;
50954;SDS011;36966;48.064;-0.792;2022-10-31T04:30:00;1.42;;;0.90;;
50954;SDS011;36966;48.064;-0.792;2022-10-31T04:32:20;1.40;;;0.95;;
50954;SDS011;36966;48.064;-0.792;2022-10-31T04:34:40;1.20;;;0.90;;
50954;SDS011;36966;48.064;-0.792;2022-10-31T04:36:59;1.50;;;1.10;;
50954;SDS011;36966;48.064;-0.792;2022-10-31T04:39:18;1.52;;;1.08;;
50954;SDS011;36966;48.064;-0.792;2022-10-31T04:41:37;1.50;;;1.10;;
50954;SDS011;36966;48.064;-0.792;2022-10-31T04:43:56;1.73;;;1.10;;
50954;SDS011;36966;48.064;-0.792;2022-10-31T04:46:15;3.20;;;0.93;;
50954;SDS011;36966;48.064;-0.792;2022-10-31T04:48:34;1.17;;;0.85;;
50954;SDS011;36966;48.064;-0.792;2022-10-31T04:50:58;2.75;;;1.10;;
50954;SDS011;36966;48.064;-0.792;2022-10-31T04:53:21;1.50;;;1.13;;
50954;SDS011;36966;48.064;-0.792;2022-10-31T04:55:40;2.17;;;1.05;;
50954;SDS011;36966;48.064;-0.792;2022-10-31T04:57:59;2.00;;;1.20;;
50954;SDS011;36966;48.064;-0.792;2022-10-31T05:00:19;1.08;;;0.80;;
50954;SDS011;36966;48.064;-0.792;2022-10-31T05:02:51;3.05;;;1.27;;
50954;SDS011;36966;48.064;-0.792;2022-10-31T05:05:12;3.22;;;1.50;;
50954;SDS011;36966;48.064;-0.792;2022-10-31T05:07:32;2.47;;;1.50;;
50954;SDS011;36966;48.064;-0.792;2022-10-31T05:09:52;7.40;;;1.85;;
50954;SDS011;36966;48.064;-0.792;2022-10-31T05:12:11;5.32;;;1.58;;
50954;SDS011;36966;48.064;-0.792;2022-10-31T05:14:30;2.55;;;1.30;;
50954;SDS011;36966;48.064;-0.792;2022-10-31T05:16:49;2.47;;;1.30;;
50954;SDS011;36966;48.064;-0.792;2022-10-31T05:19:08;2.80;;;1.30;;
50954;SDS011;36966;48.064;-0.792;2022-10-31T05:21:27;5.47;;;1.88;;
50954;SDS011;36966;48.064;-0.792;2022-10-31T05:23:46;1.90;;;1.23;;
50954;SDS011;36966;48.064;-0.792;2022-10-31T05:26:06;3.03;;;1.15;;
50954;SDS011;36966;48.064;-0.792;2022-10-31T05:28:25;3.35;;;1.10;;
50954;SDS011;36966;48.064;-0.792;2022-10-31T05:30:44;4.28;;;1.35;;
50954;SDS011;36966;48.064;-0.792;2022-10-31T05:33:03;2.67;;;1.30;;
50954;SDS011;36966;48.064;-0.792;2022-10-31T05:35:27;1.90;;;1.15;;
50954;SDS011;36966;48.064;-0.792;2022-10-31T05:37:48;1.40;;;1.00;;
50954;SDS011;36966;48.064;-0.792;2022-10-31T05:40:08;3.47;;;0.95;;
50954;SDS011;36966;48.064;-0.792;2022-10-31T05:42:29;2.95;;;1.08;;
50954;SDS011;36966;48.064;-0.792;2022-10-31T05:44:48;2.50;;;1.30;;
50954;SDS011;36966;48.064;-0.792;2022-10-31T05:47:07;6.43;;;2.00;;
50954;SDS011;36966;48.064;-0.792;2022-10-31T05:49:26;3.65;;;1.20;;
50954;SDS011;36966;48.064;-0.792;2022-10-31T05:51:45;2.53;;;1.40;;
50954;SDS011;36966;48.064;-0.792;2022-10-31T05:54:05;4.05;;;1.58;;
50954;SDS011;36966;48.064;-0.792;2022-10-31T05:56:24;5.18;;;1.38;;
50954;SDS011;36966;48.064;-0.792;2022-10-31T05:58:43;2.25;;;1.33;;
50954;SDS011;36966;48.064;-0.792;2022-10-31T06:01:02;3.05;;;1.33;;
50954;SDS011;36966;48.064;-0.792;2022-10-31T06:03:21;4.82;;;1.63;;
50954;SDS011;36966;48.064;-0.792;2022-10-31T06:05:40;2.50;;;1.27;;
50954;SDS011;36966;48.064;-0.792;2022-10-31T06:07:59;6.93;;;1.48;;
50954;SDS011;36966;48.064;-0.792;2022-10-31T06:10:19;4.22;;;1.75;;
50954;SDS011;36966;48.064;-0.792;2022-10-31T06:12:39;2.22;;;1.33;;
50954;SDS011;36966;48.064;-0.792;2022-10-31T06:14:59;3.13;;;1.45;;
50954;SDS011;36966;48.064;-0.792;2022-10-31T06:17:18;4.40;;;1.17;;
50954;SDS011;36966;48.064;-0.792;2022-10-31T06:19:37;3.45;;;0.80;;
50954;SDS011;36966;48.064;-0.792;2022-10-31T06:21:56;3.58;;;0.95;;
50954;SDS011;36966;48.064;-0.792;2022-10-31T06:24:15;3.20;;;1.00;;
50954;SDS011;36966;48.064;-0.792;2022-10-31T06:26:34;4.82;;;1.73;;
50954;SDS011;36966;48.064;-0.792;2022-10-31T06:28:53;1.27;;;0.80;;
50954;SDS011;36966;48.064;-0.792;2022-10-31T06:31:12;1.70;;;0.80;;
50954;SDS011;36966;48.064;-0.792;2022-10-31T06:33:32;2.85;;;0.70;;
50954;SDS011;36966;48.064;-0.792;2022-10-31T06:35:52;1.58;;;0.70;;
50954;SDS011;36966;48.064;-0.792;2022-10-31T06:38:12;2.83;;;0.80;;
50954;SDS011;36966;48.064;-0.792;2022-10-31T06:40:31;2.95;;;0.50;;
50954;SDS011;36966;48.064;-0.792;2022-10-31T06:42:57;2.03;;;0.55;;
50954;SDS011;36966;48.064;-0.792;2022-10-31T06:45:17;1.70;;;0.63;;
50954;SDS011;36966;48.064;-0.792;2022-10-31T06:47:37;1.08;;;0.50;;
50954;SDS011;36966;48.064;-0.792;2022-10-31T06:49:56;3.15;;;0.50;;
50954;SDS011;36966;48.064;-0.792;2022-10-31T06:52:15;4.50;;;1.15;;
50954;SDS011;36966;48.064;-0.792;2022-10-31T06:54:34;1.83;;;0.77;;
50954;SDS011;36966;48.064;-0.792;2022-10-31T06:56:54;0.77;;;0.50;;
50954;SDS011;36966;48.064;-0.792;2022-10-31T06:59:13;2.58;;;0.60;;
50954;SDS011;36966;48.064;-0.792;2022-10-31T07:01:34;0.98;;;0.63;;
50954;SDS011;36966;48.064;-0.792;2022-10-31T07:03:53;1.95;;;0.85;;
50954;SDS011;36966;48.064;-0.792;2022-10-31T07:06:12;2.70;;;1.05;;
50954;SDS011;36966;48.064;-0.792;2022-10-31T07:08:31;2.50;;;0.65;;
50954;SDS011;36966;48.064;-0.792;2022-10-31T07:10:54;1.58;;;0.65;;
50954;SDS011;36966;48.064;-0.792;2022-10-31T07:13:15;2.13;;;0.70;;
50954;SDS011;36966;48.064;-0.792;2022-10-31T07:15:35;4.80;;;1.67;;
50954;SDS011;36966;48.064;-0.792;2022-10-31T07:17:59;2.28;;;1.45;;
50954;SDS011;36966;48.064;-0.792;2022-10-31T07:20:20;6.72;;;2.00;;
50954;SDS011;36966;48.064;-0.792;2022-10-31T07:22:39;2.30;;;1.30;;
50954;SDS011;36966;48.064;-0.792;2022-10-31T07:24:58;4.75;;;2.58;;
50954;SDS011;36966;48.064;-0.792;2022-10-31T07:27:17;3.67;;;1.45;;
50954;SDS011;36966;48.064;-0.792;2022-10-31T07:29:36;3.58;;;1.50;;
50954;SDS011;36966;48.064;-0.792;2022-10-31T07:31:55;2.65;;;1.40;;
50954;SDS011;36966;48.064;-0.792;2022-10-31T07:34:14;1.45;;;0.68;;
50954;SDS011;36966;48.064;-0.792;2022-10-31T07:36:33;7.72;;;1.10;;
50954;SDS011;36966;48.064;-0.792;2022-10-31T07:38:52;1.77;;;0.80;;
50954;SDS011;36966;48.064;-0.792;2022-10-31T07:41:12;2.15;;;1.02;;
50954;SDS011;36966;48.064;-0.792;2022-10-31T07:43:31;2.58;;;0.93;;
50954;SDS011;36966;48.064;-0.792;2022-10-31T07:45:51;2.20;;;0.75;;
50954;SDS011;36966;48.064;-0.792;2022-10-31T07:48:11;4.72;;;1.17;;
50954;SDS011;36966;48.064;-0.792;2022-10-31T07:50:31;2.47;;;0.70;;
50954;SDS011;36966;48.064;-0.792;2022-10-31T07:53:04;2.72;;;0.93;;
50954;SDS011;36966;48.064;-0.792;2022-10-31T07:55:30;6.72;;;0.77;;
50954;SDS011;36966;48.064;-0.792;2022-10-31T07:58:01;5.43;;;0.90;;
50954;SDS011;36966;48.064;-0.792;2022-10-31T08:00:25;3.83;;;0.85;;
50954;SDS011;36966;48.064;-0.792;2022-10-31T08:02:45;1.25;;;0.80;;
50954;SDS011;36966;48.064;-0.792;2022-10-31T08:05:04;1.80;;;0.73;;
50954;SDS011;36966;48.064;-0.792;2022-10-31T08:07:24;4.35;;;0.90;;
50954;SDS011;36966;48.064;-0.792;2022-10-31T08:09:43;1.85;;;0.68;;
50954;SDS011;36966;48.064;-0.792;2022-10-31T08:12:03;2.85;;;0.70;;
50954;SDS011;36966;48.064;-0.792;2022-10-31T08:14:22;3.55;;;0.88;;
50954;SDS011;36966;48.064;-0.792;2022-10-31T08:16:41;2.25;;;0.63;;
50954;SDS011;36966;48.064;-0.792;2022-10-31T08:19:00;3.88;;;1.05;;
50954;SDS011;36966;48.064;-0.792;2022-10-31T08:21:19;4.68;;;0.80;;
50954;SDS011;36966;48.064;-0.792;2022-10-31T08:23:39;2.40;;;0.75;;
50954;SDS011;36966;48.064;-0.792;2022-10-31T08:25:58;1.50;;;0.50;;
50954;SDS011;36966;48.064;-0.792;2022-10-31T08:28:17;2.58;;;0.60;;
50954;SDS011;36966;48.064;-0.792;2022-10-31T08:30:36;0.68;;;0.40;;
50954;SDS011;36966;48.064;-0.792;2022-10-31T08:33:13;2.05;;;0.60;;
50954;SDS011;36966;48.064;-0.792;2022-10-31T08:35:34;5.20;;;0.50;;
50954;SDS011;36966;48.064;-0.792;2022-10-31T08:37:57;1.52;;;0.68;;
50954;SDS011;36966;48.064;-0.792;2022-10-31T08:40:16;0.82;;;0.50;;
50954;SDS011;36966;48.064;-0.792;2022-10-31T08:42:35;2.00;;;0.45;;
50954;SDS011;36966;48.064;-0.792;2022-10-31T08:44:54;1.83;;;0.50;;
50954;SDS011;36966;48.064;-0.792;2022-10-31T08:47:14;2.28;;;0.50;;
50954;SDS011;36966;48.064;-0.792;2022-10-31T08:49:33;0.98;;;0.50;;
50954;SDS011;36966;48.064;-0.792;2022-10-31T08:51:52;2.65;;;0.80;;
50954;SDS011;36966;48.064;-0.792;2022-10-31T08:54:11;0.90;;;0.50;;
50954;SDS011;36966;48.064;-0.792;2022-10-31T08:56:30;0.80;;;0.52;;
50954;SDS011;36966;48.064;-0.792;2022-10-31T08:58:49;4.38;;;0.82;;
50954;SDS011;36966;48.064;-0.792;2022-10-31T09:01:10;2.20;;;0.77;;
50954;SDS011;36966;48.064;-0.792;2022-10-31T09:03:29;1.25;;;0.70;;
50954;SDS011;36966;48.064;-0.792;2022-10-31T09:05:50;4.03;;;1.00;;
50954;SDS011;36966;48.064;-0.792;2022-10-31T09:08:14;2.77;;;0.73;;
50954;SDS011;36966;48.064;-0.792;2022-10-31T09:10:34;2.70;;;0.60;;
50954;SDS011;36966;48.064;-0.792;2022-10-31T09:12:59;4.50;;;0.82;;
50954;SDS011;36966;48.064;-0.792;2022-10-31T09:15:20;3.35;;;1.10;;
50954;SDS011;36966;48.064;-0.792;2022-10-31T09:17:39;5.28;;;0.95;;
50954;SDS011;36966;48.064;-0.792;2022-10-31T09:20:04;2.70;;;0.80;;
50954;SDS011;36966;48.064;-0.792;2022-10-31T09:22:23;2.33;;;1.00;;
50954;SDS011;36966;48.064;-0.792;2022-10-31T09:24:43;3.88;;;1.10;;
50954;SDS011;36966;48.064;-0.792;2022-10-31T09:27:02;3.05;;;1.02;;
50954;SDS011;36966;48.064;-0.792;2022-10-31T09:29:21;5.03;;;1.40;;
50954;SDS011;36966;48.064;-0.792;2022-10-31T09:31:40;4.10;;;1.63;;
50954;SDS011;36966;48.064;-0.792;2022-10-31T09:33:59;4.18;;;1.40;;
50954;SDS011;36966;48.064;-0.792;2022-10-31T09:36:18;7.00;;;1.67;;
50954;SDS011;36966;48.064;-0.792;2022-10-31T09:38:37;3.80;;;1.75;;
50954;SDS011;36966;48.064;-0.792;2022-10-31T09:46:01;3.35;;;1.50;;
50954;SDS011;36966;48.064;-0.792;2022-10-31T09:51:33;5.53;;;2.13;;
50954;SDS011;36966;48.064;-0.792;2022-10-31T09:56:22;6.93;;;2.03;;
50954;SDS011;36966;48.064;-0.792;2022-10-31T10:01:06;4.93;;;2.85;;
50954;SDS011;36966;48.064;-0.792;2022-10-31T10:03:37;5.38;;;2.08;;
50954;SDS011;36966;48.064;-0.792;2022-10-31T10:08:34;10.18;;;2.25;;
50954;SDS011;36966;48.064;-0.792;2022-10-31T10:16:19;5.10;;;2.80;;
50954;SDS011;36966;48.064;-0.792;2022-10-31T10:29:36;6.47;;;2.40;;
50954;SDS011;36966;48.064;-0.792;2022-10-31T10:32:01;7.20;;;3.85;;
50954;SDS011;36966;48.064;-0.792;2022-10-31T10:34:47;9.07;;;2.85;;
50954;SDS011;36966;48.064;-0.792;2022-10-31T10:39:35;7.55;;;3.90;;
50954;SDS011;36966;48.064;-0.792;2022-10-31T10:41:58;3.95;;;2.90;;
50954;SDS011;36966;48.064;-0.792;2022-10-31T10:44:38;6.18;;;3.17;;
50954;SDS011;36966;48.064;-0.792;2022-10-31T10:47:21;7.18;;;3.03;;
50954;SDS011;36966;48.064;-0.792;2022-10-31T10:49:59;10.95;;;3.60;;
50954;SDS011;36966;48.064;-0.792;2022-10-31T10:52:27;7.93;;;3.25;;
50954;SDS011;36966;48.064;-0.792;2022-10-31T10:54:56;11.75;;;3.88;;
50954;SDS011;36966;48.064;-0.792;2022-10-31T11:00:15;10.13;;;3.03;;
50954;SDS011;36966;48.064;-0.792;2022-10-31T11:02:37;10.65;;;3.55;;
50954;SDS011;36966;48.064;-0.792;2022-10-31T11:04:59;7.35;;;3.25;;
50954;SDS011;36966;48.064;-0.792;2022-10-31T11:07:20;9.32;;;4.45;;
50954;SDS011;36966;48.064;-0.792;2022-10-31T11:09:40;6.50;;;3.33;;
50954;SDS011;36966;48.064;-0.792;2022-10-31T11:11:59;11.60;;;3.65;;
50954;SDS011;36966;48.064;-0.792;2022-10-31T11:14:25;7.70;;;3.40;;
50954;SDS011;36966;48.064;-0.792;2022-10-31T11:16:48;12.57;;;3.53;;
50954;SDS011;36966;48.064;-0.792;2022-10-31T11:19:16;9.07;;;3.72;;
50954;SDS011;36966;48.064;-0.792;2022-10-31T11:21:41;9.10;;;3.42;;
50954;SDS011;36966;48.064;-0.792;2022-10-31T11:24:01;10.82;;;4.22;;
50954;SDS011;36966;48.064;-0.792;2022-10-31T11:26:42;8.13;;;3.25;;
50954;SDS011;36966;48.064;-0.792;2022-10-31T11:29:04;9.82;;;3.20;;
50954;SDS011;36966;48.064;-0.792;2022-10-31T11:31:27;10.65;;;4.00;;
50954;SDS011;36966;48.064;-0.792;2022-10-31T11:33:47;14.55;;;4.10;;
50954;SDS011;36966;48.064;-0.792;2022-10-31T11:36:22;10.43;;;4.47;;
50954;SDS011;36966;48.064;-0.792;2022-10-31T11:38:45;7.40;;;4.13;;
50954;SDS011;36966;48.064;-0.792;2022-10-31T11:41:15;13.15;;;4.15;;
50954;SDS011;36966;48.064;-0.792;2022-10-31T11:43:36;14.23;;;3.90;;
50954;SDS011;36966;48.064;-0.792;2022-10-31T11:45:57;10.45;;;4.68;;
50954;SDS011;36966;48.064;-0.792;2022-10-31T11:48:17;10.88;;;4.70;;
50954;SDS011;36966;48.064;-0.792;2022-10-31T11:50:40;12.73;;;3.88;;
50954;SDS011;36966;48.064;-0.792;2022-10-31T11:53:01;10.32;;;5.00;;
50954;SDS011;36966;48.064;-0.792;2022-10-31T11:55:35;10.40;;;4.25;;
50954;SDS011;36966;48.064;-0.792;2022-10-31T11:57:56;15.77;;;6.30;;
50954;SDS011;36966;48.064;-0.792;2022-10-31T12:02:49;13.68;;;5.15;;
50954;SDS011;36966;48.064;-0.792;2022-10-31T12:05:19;14.38;;;4.97;;
50954;SDS011;36966;48.064;-0.792;2022-10-31T12:07:43;9.80;;;6.07;;
50954;SDS011;36966;48.064;-0.792;2022-10-31T12:10:09;12.35;;;5.05;;
50954;SDS011;36966;48.064;-0.792;2022-10-31T12:13:32;17.23;;;6.18;;
50954;SDS011;36966;48.064;-0.792;2022-10-31T12:15:38;7.57;;;4.60;;
50954;SDS011;36966;48.064;-0.792;2022-10-31T12:23:20;16.88;;;5.47;;
50954;SDS011;36966;48.064;-0.792;2022-10-31T12:25:50;12.95;;;5.53;;
50954;SDS011;36966;48.064;-0.792;2022-10-31T12:31:05;11.15;;;4.63;;
50954;SDS011;36966;48.064;-0.792;2022-10-31T12:48:59;11.23;;;5.20;;
50954;SDS011;36966;48.064;-0.792;2022-10-31T12:59:44;21.30;;;6.47;;
50954;SDS011;36966;48.064;-0.792;2022-10-31T13:02:13;11.75;;;4.82;;
50954;SDS011;36966;48.064;-0.792;2022-10-31T13:07:05;13.18;;;5.00;;
50954;SDS011;36966;48.064;-0.792;2022-10-31T13:09:56;18.50;;;5.97;;
50954;SDS011;36966;48.064;-0.792;2022-10-31T13:12:15;16.48;;;7.30;;
50954;SDS011;36966;48.064;-0.792;2022-10-31T13:14:44;10.65;;;5.63;;
50954;SDS011;36966;48.064;-0.792;2022-10-31T13:17:11;14.27;;;5.18;;
50954;SDS011;36966;48.064;-0.792;2022-10-31T13:19:43;12.35;;;6.43;;
50954;SDS011;36966;48.064;-0.792;2022-10-31T13:22:06;11.88;;;5.18;;
50954;SDS011;36966;48.064;-0.792;2022-10-31T13:26:54;11.02;;;5.22;;
50954;SDS011;36966;48.064;-0.792;2022-10-31T13:29:19;20.42;;;5.88;;
50954;SDS011;36966;48.064;-0.792;2022-10-31T13:32:00;15.27;;;5.32;;
50954;SDS011;36966;48.064;-0.792;2022-10-31T13:36:52;14.63;;;5.18;;
50954;SDS011;36966;48.064;-0.792;2022-10-31T13:46:48;12.50;;;4.30;;
50954;SDS011;36966;48.064;-0.792;2022-10-31T13:49:25;13.50;;;4.68;;
50954;SDS011;36966;48.064;-0.792;2022-10-31T13:51:48;16.95;;;5.22;;
50954;SDS011;36966;48.064;-0.792;2022-10-31T13:54:19;13.27;;;5.43;;
50954;SDS011;36966;48.064;-0.792;2022-10-31T13:56:39;10.68;;;4.97;;
50954;SDS011;36966;48.064;-0.792;2022-10-31T14:01:33;13.77;;;4.03;;
50954;SDS011;36966;48.064;-0.792;2022-10-31T14:06:35;12.48;;;4.13;;
50954;SDS011;36966;48.064;-0.792;2022-10-31T14:08:55;15.32;;;4.35;;
50954;SDS011;36966;48.064;-0.792;2022-10-31T14:11:24;6.97;;;4.25;;
50954;SDS011;36966;48.064;-0.792;2022-10-31T14:13:46;10.45;;;4.53;;
50954;SDS011;36966;48.064;-0.792;2022-10-31T14:16:06;14.82;;;4.07;;
50954;SDS011;36966;48.064;-0.792;2022-10-31T14:18:41;15.68;;;4.60;;
50954;SDS011;36966;48.064;-0.792;2022-10-31T14:23:44;9.35;;;4.53;;
50954;SDS011;36966;48.064;-0.792;2022-10-31T14:28:44;18.35;;;4.75;;
50954;SDS011;36966;48.064;-0.792;2022-10-31T14:31:24;13.05;;;5.85;;
50954;SDS011;36966;48.064;-0.792;2022-10-31T14:33:53;14.02;;;4.63;;
50954;SDS011;36966;48.064;-0.792;2022-10-31T14:36:17;18.80;;;4.78;;
50954;SDS011;36966;48.064;-0.792;2022-10-31T14:42:03;13.25;;;5.13;;
50954;SDS011;36966;48.064;-0.792;2022-10-31T14:47:31;12.57;;;4.15;;
50954;SDS011;36966;48.064;-0.792;2022-10-31T14:52:37;19.15;;;6.72;;
50954;SDS011;36966;48.064;-0.792;2022-10-31T14:54:58;22.50;;;8.10;;
50954;SDS011;36966;48.064;-0.792;2022-10-31T14:57:26;13.23;;;5.78;;
50954;SDS011;36966;48.064;-0.792;2022-10-31T14:59:50;20.52;;;6.88;;
50954;SDS011;36966;48.064;-0.792;2022-10-31T15:02:16;12.18;;;5.60;;
50954;SDS011;36966;48.064;-0.792;2022-10-31T15:04:57;16.25;;;7.25;;
50954;SDS011;36966;48.064;-0.792;2022-10-31T15:07:22;21.65;;;7.20;;
50954;SDS011;36966;48.064;-0.792;2022-10-31T15:09:43;13.80;;;3.63;;
50954;SDS011;36966;48.064;-0.792;2022-10-31T15:14:43;10.35;;;4.90;;
50954;SDS011;36966;48.064;-0.792;2022-10-31T15:17:02;19.83;;;6.00;;
50954;SDS011;36966;48.064;-0.792;2022-10-31T15:19:23;20.15;;;6.32;;
50954;SDS011;36966;48.064;-0.792;2022-10-31T15:21:45;10.75;;;6.18;;
50954;SDS011;36966;48.064;-0.792;2022-10-31T15:24:05;25.25;;;8.57;;
50954;SDS011;36966;48.064;-0.792;2022-10-31T15:26:30;16.05;;;7.68;;
50954;SDS011;36966;48.064;-0.792;2022-10-31T15:29:03;8.65;;;3.60;;
50954;SDS011;36966;48.064;-0.792;2022-10-31T15:31:24;11.13;;;3.63;;
50954;SDS011;36966;48.064;-0.792;2022-10-31T15:33:46;12.70;;;3.33;;
50954;SDS011;36966;48.064;-0.792;2022-10-31T15:36:21;11.95;;;3.33;;
50954;SDS011;36966;48.064;-0.792;2022-10-31T15:38:41;8.30;;;3.40;;
50954;SDS011;36966;48.064;-0.792;2022-10-31T15:41:01;8.38;;;2.25;;
50954;SDS011;36966;48.064;-0.792;2022-10-31T15:43:24;11.57;;;3.00;;
50954;SDS011;36966;48.064;-0.792;2022-10-31T15:45:44;5.25;;;2.38;;
50954;SDS011;36966;48.064;-0.792;2022-10-31T15:48:04;9.13;;;2.85;;
50954;SDS011;36966;48.064;-0.792;2022-10-31T15:52:58;5.50;;;1.55;;
50954;SDS011;36966;48.064;-0.792;2022-10-31T15:55:19;4.88;;;1.83;;
50954;SDS011;36966;48.064;-0.792;2022-10-31T15:57:42;10.30;;;2.13;;
50954;SDS011;36966;48.064;-0.792;2022-10-31T16:00:04;14.57;;;3.05;;
50954;SDS011;36966;48.064;-0.792;2022-10-31T16:02:25;7.28;;;2.35;;
50954;SDS011;36966;48.064;-0.792;2022-10-31T16:04:49;4.63;;;2.22;;
50954;SDS011;36966;48.064;-0.792;2022-10-31T16:07:19;9.85;;;2.33;;
50954;SDS011;36966;48.064;-0.792;2022-10-31T16:09:50;13.63;;;4.07;;
50954;SDS011;36966;48.064;-0.792;2022-10-31T16:12:19;9.38;;;2.42;;
50954;SDS011;36966;48.064;-0.792;2022-10-31T16:14:40;7.97;;;3.28;;
50954;SDS011;36966;48.064;-0.792;2022-10-31T16:17:00;10.95;;;3.15;;
50954;SDS011;36966;48.064;-0.792;2022-10-31T16:19:21;11.50;;;3.38;;
50954;SDS011;36966;48.064;-0.792;2022-10-31T16:21:43;9.05;;;3.03;;
50954;SDS011;36966;48.064;-0.792;2022-10-31T16:24:22;9.25;;;2.22;;
50954;SDS011;36966;48.064;-0.792;2022-10-31T16:26:50;4.68;;;2.25;;
50954;SDS011;36966;48.064;-0.792;2022-10-31T16:29:23;8.68;;;1.95;;
50954;SDS011;36966;48.064;-0.792;2022-10-31T16:31:51;11.73;;;2.72;;
50954;SDS011;36966;48.064;-0.792;2022-10-31T16:34:12;3.70;;;1.70;;